sensor_id;sensor_type;location;lat;lon;timestamp;P1;durP1;ratioP1;P2;durP2;ratioP2
76495;SDS011;65329;52.544;4.662;2023-02-15T00:00:19;74.47;;;23.48;;
76495;SDS011;65329;52.544;4.662;2023-02-15T00:02:46;73.05;;;21.05;;
76495;SDS011;65329;52.544;4.662;2023-02-15T00:05:13;45.17;;;18.88;;
76495;SDS011;65329;52.544;4.662;2023-02-15T00:07:40;64.95;;;21.45;;
76495;SDS011;65329;52.544;4.662;2023-02-15T00:10:07;46.53;;;20.58;;
76495;SDS011;65329;52.544;4.662;2023-02-15T00:12:35;39.47;;;20.02;;
76495;SDS011;65329;52.544;4.662;2023-02-15T00:15:03;42.55;;;23.10;;
76495;SDS011;65329;52.544;4.662;2023-02-15T00:17:31;42.45;;;22.08;;
76495;SDS011;65329;52.544;4.662;2023-02-15T00:19:58;39.53;;;21.63;;
76495;SDS011;65329;52.544;4.662;2023-02-15T00:22:25;35.85;;;20.67;;
76495;SDS011;65329;52.544;4.662;2023-02-15T00:24:52;43.13;;;21.75;;
76495;SDS011;65329;52.544;4.662;2023-02-15T00:27:19;40.88;;;21.38;;
76495;SDS011;65329;52.544;4.662;2023-02-15T00:29:46;44.47;;;22.42;;
76495;SDS011;65329;52.544;4.662;2023-02-15T00:32:15;39.30;;;20.80;;
76495;SDS011;65329;52.544;4.662;2023-02-15T00:34:42;47.58;;;20.98;;
76495;SDS011;65329;52.544;4.662;2023-02-15T00:37:09;56.58;;;22.58;;
76495;SDS011;65329;52.544;4.662;2023-02-15T00:39:36;85.82;;;26.80;;
76495;SDS011;65329;52.544;4.662;2023-02-15T00:42:04;49.88;;;21.02;;
76495;SDS011;65329;52.544;4.662;2023-02-15T00:44:36;40.55;;;21.38;;
76495;SDS011;65329;52.544;4.662;2023-02-15T00:47:03;84.55;;;24.20;;
76495;SDS011;65329;52.544;4.662;2023-02-15T00:49:30;54.88;;;21.58;;
76495;SDS011;65329;52.544;4.662;2023-02-15T00:51:57;92.50;;;24.23;;
76495;SDS011;65329;52.544;4.662;2023-02-15T00:54:24;119.05;;;27.15;;
76495;SDS011;65329;52.544;4.662;2023-02-15T00:56:53;74.90;;;22.63;;
76495;SDS011;65329;52.544;4.662;2023-02-15T00:59:21;100.65;;;23.52;;
76495;SDS011;65329;52.544;4.662;2023-02-15T01:01:49;76.30;;;22.60;;
76495;SDS011;65329;52.544;4.662;2023-02-15T01:04:18;102.70;;;23.80;;
76495;SDS011;65329;52.544;4.662;2023-02-15T01:06:45;50.92;;;20.50;;
76495;SDS011;65329;52.544;4.662;2023-02-15T01:09:12;41.45;;;21.08;;
76495;SDS011;65329;52.544;4.662;2023-02-15T01:11:40;33.40;;;19.27;;
76495;SDS011;65329;52.544;4.662;2023-02-15T01:14:07;69.68;;;21.60;;
76495;SDS011;65329;52.544;4.662;2023-02-15T01:16:37;59.50;;;21.55;;
76495;SDS011;65329;52.544;4.662;2023-02-15T01:19:05;47.72;;;21.85;;
76495;SDS011;65329;52.544;4.662;2023-02-15T01:21:32;93.50;;;24.08;;
76495;SDS011;65329;52.544;4.662;2023-02-15T01:24:03;45.40;;;21.98;;
76495;SDS011;65329;52.544;4.662;2023-02-15T01:26:30;48.92;;;21.58;;
76495;SDS011;65329;52.544;4.662;2023-02-15T01:28:58;49.10;;;20.33;;
76495;SDS011;65329;52.544;4.662;2023-02-15T01:31:25;72.10;;;22.05;;
76495;SDS011;65329;52.544;4.662;2023-02-15T01:33:52;45.83;;;20.25;;
76495;SDS011;65329;52.544;4.662;2023-02-15T01:36:22;48.35;;;19.35;;
76495;SDS011;65329;52.544;4.662;2023-02-15T01:38:50;48.65;;;20.85;;
76495;SDS011;65329;52.544;4.662;2023-02-15T01:41:17;51.55;;;20.88;;
76495;SDS011;65329;52.544;4.662;2023-02-15T01:46:38;58.45;;;21.08;;
76495;SDS011;65329;52.544;4.662;2023-02-15T01:49:15;36.60;;;19.30;;
76495;SDS011;65329;52.544;4.662;2023-02-15T01:51:45;48.08;;;19.58;;
76495;SDS011;65329;52.544;4.662;2023-02-15T01:54:18;46.72;;;17.70;;
76495;SDS011;65329;52.544;4.662;2023-02-15T01:56:55;42.95;;;19.23;;
76495;SDS011;65329;52.544;4.662;2023-02-15T01:59:29;95.35;;;21.17;;
76495;SDS011;65329;52.544;4.662;2023-02-15T02:02:00;91.80;;;22.80;;
76495;SDS011;65329;52.544;4.662;2023-02-15T02:04:33;80.28;;;20.65;;
76495;SDS011;65329;52.544;4.662;2023-02-15T02:07:07;71.47;;;22.45;;
76495;SDS011;65329;52.544;4.662;2023-02-15T02:09:37;75.47;;;20.65;;
76495;SDS011;65329;52.544;4.662;2023-02-15T02:12:04;33.17;;;17.17;;
76495;SDS011;65329;52.544;4.662;2023-02-15T02:14:31;34.05;;;15.90;;
76495;SDS011;65329;52.544;4.662;2023-02-15T02:34:34;31.50;;;17.60;;
76495;SDS011;65329;52.544;4.662;2023-02-15T02:37:12;52.30;;;21.13;;
76495;SDS011;65329;52.544;4.662;2023-02-15T02:39:46;37.72;;;16.50;;
76495;SDS011;65329;52.544;4.662;2023-02-15T02:45:05;57.95;;;17.67;;
76495;SDS011;65329;52.544;4.662;2023-02-15T02:47:55;32.83;;;15.75;;
76495;SDS011;65329;52.544;4.662;2023-02-15T02:50:29;40.95;;;16.58;;
76495;SDS011;65329;52.544;4.662;2023-02-15T02:52:57;32.53;;;16.70;;
76495;SDS011;65329;52.544;4.662;2023-02-15T02:55:34;32.47;;;16.60;;
76495;SDS011;65329;52.544;4.662;2023-02-15T03:00:50;41.63;;;17.27;;
76495;SDS011;65329;52.544;4.662;2023-02-15T03:03:35;42.80;;;18.15;;
76495;SDS011;65329;52.544;4.662;2023-02-15T03:06:15;34.30;;;16.35;;
76495;SDS011;65329;52.544;4.662;2023-02-15T03:09:06;41.42;;;17.40;;
76495;SDS011;65329;52.544;4.662;2023-02-15T03:11:41;42.42;;;17.45;;
76495;SDS011;65329;52.544;4.662;2023-02-15T03:14:11;38.08;;;17.75;;
76495;SDS011;65329;52.544;4.662;2023-02-15T03:16:39;35.53;;;16.35;;
76495;SDS011;65329;52.544;4.662;2023-02-15T03:19:13;32.10;;;16.15;;
76495;SDS011;65329;52.544;4.662;2023-02-15T03:21:47;28.85;;;16.10;;
76495;SDS011;65329;52.544;4.662;2023-02-15T03:24:28;39.47;;;16.80;;
76495;SDS011;65329;52.544;4.662;2023-02-15T03:26:56;26.55;;;15.75;;
76495;SDS011;65329;52.544;4.662;2023-02-15T03:29:24;29.20;;;15.88;;
76495;SDS011;65329;52.544;4.662;2023-02-15T03:31:54;26.13;;;16.30;;
76495;SDS011;65329;52.544;4.662;2023-02-15T03:34:26;26.83;;;16.45;;
76495;SDS011;65329;52.544;4.662;2023-02-15T03:39:27;27.13;;;16.30;;
76495;SDS011;65329;52.544;4.662;2023-02-15T03:44:51;27.13;;;15.88;;
76495;SDS011;65329;52.544;4.662;2023-02-15T03:47:31;24.10;;;15.73;;
76495;SDS011;65329;52.544;4.662;2023-02-15T03:50:03;28.33;;;15.95;;
76495;SDS011;65329;52.544;4.662;2023-02-15T03:52:55;25.65;;;16.15;;
76495;SDS011;65329;52.544;4.662;2023-02-15T03:55:26;24.40;;;16.08;;
76495;SDS011;65329;52.544;4.662;2023-02-15T03:57:56;27.50;;;16.08;;
76495;SDS011;65329;52.544;4.662;2023-02-15T04:00:43;21.17;;;14.93;;
76495;SDS011;65329;52.544;4.662;2023-02-15T04:03:37;23.25;;;14.88;;
76495;SDS011;65329;52.544;4.662;2023-02-15T04:06:07;21.35;;;14.85;;
76495;SDS011;65329;52.544;4.662;2023-02-15T04:08:35;24.02;;;14.85;;
76495;SDS011;65329;52.544;4.662;2023-02-15T04:11:21;25.80;;;15.95;;
76495;SDS011;65329;52.544;4.662;2023-02-15T04:13:47;37.17;;;16.15;;
76495;SDS011;65329;52.544;4.662;2023-02-15T04:16:23;22.48;;;14.82;;
76495;SDS011;65329;52.544;4.662;2023-02-15T04:18:50;50.35;;;17.55;;
76495;SDS011;65329;52.544;4.662;2023-02-15T04:21:37;52.45;;;16.52;;
76495;SDS011;65329;52.544;4.662;2023-02-15T04:24:22;38.25;;;17.80;;
76495;SDS011;65329;52.544;4.662;2023-02-15T04:27:07;30.23;;;14.55;;
76495;SDS011;65329;52.544;4.662;2023-02-15T04:29:34;33.40;;;15.23;;
76495;SDS011;65329;52.544;4.662;2023-02-15T04:32:01;45.72;;;16.95;;
76495;SDS011;65329;52.544;4.662;2023-02-15T04:34:30;33.80;;;16.15;;
76495;SDS011;65329;52.544;4.662;2023-02-15T04:36:56;32.72;;;17.83;;
76495;SDS011;65329;52.544;4.662;2023-02-15T04:39:29;47.03;;;16.40;;
76495;SDS011;65329;52.544;4.662;2023-02-15T04:41:58;51.08;;;17.77;;
76495;SDS011;65329;52.544;4.662;2023-02-15T04:44:24;61.30;;;18.80;;
76495;SDS011;65329;52.544;4.662;2023-02-15T04:46:51;32.35;;;15.70;;
76495;SDS011;65329;52.544;4.662;2023-02-15T04:49:27;36.17;;;18.88;;
76495;SDS011;65329;52.544;4.662;2023-02-15T04:51:54;35.67;;;18.10;;
76495;SDS011;65329;52.544;4.662;2023-02-15T04:54:22;32.30;;;16.75;;
76495;SDS011;65329;52.544;4.662;2023-02-15T04:56:49;30.52;;;16.65;;
76495;SDS011;65329;52.544;4.662;2023-02-15T04:59:18;26.65;;;16.50;;
76495;SDS011;65329;52.544;4.662;2023-02-15T05:01:45;32.00;;;16.88;;
76495;SDS011;65329;52.544;4.662;2023-02-15T05:04:13;28.00;;;15.82;;
76495;SDS011;65329;52.544;4.662;2023-02-15T05:06:40;30.77;;;17.35;;
76495;SDS011;65329;52.544;4.662;2023-02-15T05:09:07;29.85;;;17.25;;
76495;SDS011;65329;52.544;4.662;2023-02-15T05:11:34;26.85;;;15.48;;
76495;SDS011;65329;52.544;4.662;2023-02-15T05:14:01;28.73;;;17.10;;
76495;SDS011;65329;52.544;4.662;2023-02-15T05:16:28;26.92;;;16.38;;
76495;SDS011;65329;52.544;4.662;2023-02-15T05:18:55;29.13;;;16.10;;
76495;SDS011;65329;52.544;4.662;2023-02-15T05:21:22;33.20;;;17.50;;
76495;SDS011;65329;52.544;4.662;2023-02-15T05:23:49;33.78;;;17.75;;
76495;SDS011;65329;52.544;4.662;2023-02-15T05:26:17;28.60;;;17.95;;
76495;SDS011;65329;52.544;4.662;2023-02-15T05:29:04;28.95;;;15.93;;
76495;SDS011;65329;52.544;4.662;2023-02-15T05:31:32;30.17;;;17.38;;
76495;SDS011;65329;52.544;4.662;2023-02-15T05:34:00;31.17;;;17.00;;
76495;SDS011;65329;52.544;4.662;2023-02-15T05:36:29;27.35;;;16.17;;
76495;SDS011;65329;52.544;4.662;2023-02-15T05:38:56;27.27;;;16.63;;
76495;SDS011;65329;52.544;4.662;2023-02-15T05:41:24;28.25;;;17.85;;
76495;SDS011;65329;52.544;4.662;2023-02-15T05:43:54;26.27;;;16.30;;
76495;SDS011;65329;52.544;4.662;2023-02-15T05:46:22;28.48;;;15.65;;
76495;SDS011;65329;52.544;4.662;2023-02-15T05:48:48;27.30;;;16.30;;
76495;SDS011;65329;52.544;4.662;2023-02-15T05:51:21;27.33;;;15.90;;
76495;SDS011;65329;52.544;4.662;2023-02-15T05:53:48;27.55;;;16.63;;
76495;SDS011;65329;52.544;4.662;2023-02-15T05:56:15;24.40;;;15.73;;
76495;SDS011;65329;52.544;4.662;2023-02-15T05:58:42;26.05;;;16.02;;
76495;SDS011;65329;52.544;4.662;2023-02-15T06:01:09;29.52;;;17.05;;
76495;SDS011;65329;52.544;4.662;2023-02-15T06:03:38;25.25;;;16.08;;
76495;SDS011;65329;52.544;4.662;2023-02-15T06:06:06;30.15;;;17.33;;
76495;SDS011;65329;52.544;4.662;2023-02-15T06:08:34;27.38;;;15.88;;
76495;SDS011;65329;52.544;4.662;2023-02-15T06:11:02;31.30;;;15.82;;
76495;SDS011;65329;52.544;4.662;2023-02-15T06:13:29;32.03;;;17.00;;
76495;SDS011;65329;52.544;4.662;2023-02-15T06:15:56;29.13;;;16.02;;
76495;SDS011;65329;52.544;4.662;2023-02-15T06:18:23;31.95;;;17.40;;
76495;SDS011;65329;52.544;4.662;2023-02-15T06:20:50;29.52;;;18.73;;
76495;SDS011;65329;52.544;4.662;2023-02-15T06:23:18;33.33;;;18.90;;
76495;SDS011;65329;52.544;4.662;2023-02-15T06:25:45;30.73;;;18.92;;
76495;SDS011;65329;52.544;4.662;2023-02-15T06:28:14;33.20;;;18.80;;
76495;SDS011;65329;52.544;4.662;2023-02-15T06:30:40;33.05;;;17.98;;
76495;SDS011;65329;52.544;4.662;2023-02-15T06:33:08;31.13;;;17.67;;
76495;SDS011;65329;52.544;4.662;2023-02-15T06:35:35;33.45;;;17.42;;
76495;SDS011;65329;52.544;4.662;2023-02-15T06:38:03;27.70;;;16.42;;
76495;SDS011;65329;52.544;4.662;2023-02-15T06:40:30;35.08;;;19.50;;
76495;SDS011;65329;52.544;4.662;2023-02-15T06:42:57;32.97;;;18.83;;
76495;SDS011;65329;52.544;4.662;2023-02-15T06:45:24;35.00;;;18.08;;
76495;SDS011;65329;52.544;4.662;2023-02-15T06:47:51;31.88;;;17.73;;
76495;SDS011;65329;52.544;4.662;2023-02-15T06:50:17;40.70;;;20.48;;
76495;SDS011;65329;52.544;4.662;2023-02-15T06:52:44;39.60;;;19.50;;
76495;SDS011;65329;52.544;4.662;2023-02-15T06:55:11;41.00;;;21.02;;
76495;SDS011;65329;52.544;4.662;2023-02-15T06:57:38;40.00;;;20.70;;
76495;SDS011;65329;52.544;4.662;2023-02-15T07:00:05;42.85;;;21.73;;
76495;SDS011;65329;52.544;4.662;2023-02-15T07:02:34;41.67;;;20.25;;
76495;SDS011;65329;52.544;4.662;2023-02-15T07:05:01;43.17;;;21.35;;
76495;SDS011;65329;52.544;4.662;2023-02-15T07:07:29;42.50;;;19.92;;
76495;SDS011;65329;52.544;4.662;2023-02-15T07:09:55;39.80;;;21.05;;
76495;SDS011;65329;52.544;4.662;2023-02-15T07:12:22;39.38;;;21.23;;
76495;SDS011;65329;52.544;4.662;2023-02-15T07:15:14;42.35;;;20.58;;
76495;SDS011;65329;52.544;4.662;2023-02-15T07:17:43;43.30;;;20.27;;
76495;SDS011;65329;52.544;4.662;2023-02-15T07:20:11;44.58;;;22.80;;
76495;SDS011;65329;52.544;4.662;2023-02-15T07:22:40;47.17;;;23.50;;
76495;SDS011;65329;52.544;4.662;2023-02-15T07:25:07;52.30;;;24.20;;
76495;SDS011;65329;52.544;4.662;2023-02-15T07:27:37;48.90;;;23.42;;
76495;SDS011;65329;52.544;4.662;2023-02-15T07:30:07;47.38;;;22.90;;
76495;SDS011;65329;52.544;4.662;2023-02-15T07:32:36;46.35;;;21.88;;
76495;SDS011;65329;52.544;4.662;2023-02-15T07:35:03;42.67;;;22.10;;
76495;SDS011;65329;52.544;4.662;2023-02-15T07:37:30;53.53;;;24.42;;
76495;SDS011;65329;52.544;4.662;2023-02-15T07:39:57;51.42;;;24.38;;
76495;SDS011;65329;52.544;4.662;2023-02-15T07:42:24;51.17;;;25.38;;
76495;SDS011;65329;52.544;4.662;2023-02-15T07:44:51;52.30;;;24.05;;
76495;SDS011;65329;52.544;4.662;2023-02-15T07:47:23;45.45;;;22.58;;
76495;SDS011;65329;52.544;4.662;2023-02-15T07:49:49;55.00;;;25.85;;
76495;SDS011;65329;52.544;4.662;2023-02-15T07:52:16;49.03;;;24.60;;
76495;SDS011;65329;52.544;4.662;2023-02-15T07:54:43;46.83;;;23.45;;
76495;SDS011;65329;52.544;4.662;2023-02-15T07:57:10;46.20;;;23.27;;
76495;SDS011;65329;52.544;4.662;2023-02-15T07:59:39;43.75;;;22.77;;
76495;SDS011;65329;52.544;4.662;2023-02-15T08:02:12;43.53;;;23.27;;
76495;SDS011;65329;52.544;4.662;2023-02-15T08:04:43;44.42;;;21.80;;
76495;SDS011;65329;52.544;4.662;2023-02-15T08:07:10;39.60;;;20.63;;
76495;SDS011;65329;52.544;4.662;2023-02-15T08:09:37;44.33;;;20.73;;
76495;SDS011;65329;52.544;4.662;2023-02-15T08:12:04;33.38;;;18.20;;
76495;SDS011;65329;52.544;4.662;2023-02-15T08:14:32;41.47;;;22.35;;
76495;SDS011;65329;52.544;4.662;2023-02-15T08:17:00;40.75;;;20.63;;
76495;SDS011;65329;52.544;4.662;2023-02-15T08:19:31;38.63;;;22.50;;
76495;SDS011;65329;52.544;4.662;2023-02-15T08:22:00;43.40;;;22.10;;
76495;SDS011;65329;52.544;4.662;2023-02-15T08:24:30;42.08;;;21.67;;
76495;SDS011;65329;52.544;4.662;2023-02-15T08:27:03;38.80;;;21.65;;
76495;SDS011;65329;52.544;4.662;2023-02-15T08:29:32;39.17;;;19.92;;
76495;SDS011;65329;52.544;4.662;2023-02-15T08:32:02;41.65;;;21.13;;
76495;SDS011;65329;52.544;4.662;2023-02-15T08:34:32;43.30;;;23.77;;
76495;SDS011;65329;52.544;4.662;2023-02-15T08:37:01;39.55;;;20.95;;
76495;SDS011;65329;52.544;4.662;2023-02-15T08:39:32;41.63;;;22.95;;
76495;SDS011;65329;52.544;4.662;2023-02-15T08:41:59;43.03;;;22.73;;
76495;SDS011;65329;52.544;4.662;2023-02-15T08:44:27;43.47;;;22.45;;
76495;SDS011;65329;52.544;4.662;2023-02-15T08:46:53;43.17;;;22.83;;
76495;SDS011;65329;52.544;4.662;2023-02-15T08:49:21;45.00;;;22.67;;
76495;SDS011;65329;52.544;4.662;2023-02-15T08:51:48;47.92;;;26.40;;
76495;SDS011;65329;52.544;4.662;2023-02-15T08:54:17;44.03;;;23.27;;
76495;SDS011;65329;52.544;4.662;2023-02-15T08:56:46;44.58;;;23.00;;
76495;SDS011;65329;52.544;4.662;2023-02-15T08:59:15;45.85;;;22.77;;
76495;SDS011;65329;52.544;4.662;2023-02-15T09:01:44;44.70;;;24.65;;
76495;SDS011;65329;52.544;4.662;2023-02-15T09:04:13;47.83;;;23.75;;
76495;SDS011;65329;52.544;4.662;2023-02-15T09:06:42;40.70;;;22.02;;
76495;SDS011;65329;52.544;4.662;2023-02-15T09:09:13;46.35;;;25.02;;
76495;SDS011;65329;52.544;4.662;2023-02-15T09:11:41;47.78;;;24.15;;
76495;SDS011;65329;52.544;4.662;2023-02-15T09:14:11;40.35;;;22.42;;
76495;SDS011;65329;52.544;4.662;2023-02-15T09:16:47;47.38;;;25.23;;
76495;SDS011;65329;52.544;4.662;2023-02-15T09:19:16;42.88;;;24.10;;
76495;SDS011;65329;52.544;4.662;2023-02-15T09:21:44;45.47;;;24.33;;
76495;SDS011;65329;52.544;4.662;2023-02-15T09:24:12;44.15;;;25.38;;
76495;SDS011;65329;52.544;4.662;2023-02-15T09:26:42;45.78;;;26.17;;
76495;SDS011;65329;52.544;4.662;2023-02-15T09:29:11;48.88;;;25.85;;
76495;SDS011;65329;52.544;4.662;2023-02-15T09:34:20;46.53;;;24.33;;
76495;SDS011;65329;52.544;4.662;2023-02-15T09:36:49;43.20;;;22.23;;
76495;SDS011;65329;52.544;4.662;2023-02-15T09:39:20;40.17;;;21.88;;
76495;SDS011;65329;52.544;4.662;2023-02-15T09:58:03;40.33;;;22.27;;
76495;SDS011;65329;52.544;4.662;2023-02-15T10:05:50;43.65;;;25.05;;
76495;SDS011;65329;52.544;4.662;2023-02-15T10:11:06;41.25;;;23.45;;
76495;SDS011;65329;52.544;4.662;2023-02-15T10:28:05;41.72;;;25.80;;
76495;SDS011;65329;52.544;4.662;2023-02-15T10:30:39;43.92;;;24.70;;
76495;SDS011;65329;52.544;4.662;2023-02-15T10:33:59;40.67;;;24.40;;
76495;SDS011;65329;52.544;4.662;2023-02-15T10:36:09;44.00;;;24.73;;
76495;SDS011;65329;52.544;4.662;2023-02-15T10:39:05;41.55;;;24.15;;
76495;SDS011;65329;52.544;4.662;2023-02-15T10:47:39;42.28;;;25.10;;
76495;SDS011;65329;52.544;4.662;2023-02-15T10:50:20;43.67;;;25.67;;
76495;SDS011;65329;52.544;4.662;2023-02-15T11:07:18;38.97;;;24.55;;
76495;SDS011;65329;52.544;4.662;2023-02-15T11:09:59;38.28;;;22.48;;
76495;SDS011;65329;52.544;4.662;2023-02-15T11:12:33;45.40;;;24.20;;
76495;SDS011;65329;52.544;4.662;2023-02-15T11:17:47;40.08;;;23.42;;
76495;SDS011;65329;52.544;4.662;2023-02-15T11:22:56;40.47;;;23.95;;
76495;SDS011;65329;52.544;4.662;2023-02-15T11:25:25;42.67;;;23.38;;
76495;SDS011;65329;52.544;4.662;2023-02-15T11:27:56;46.30;;;24.70;;
76495;SDS011;65329;52.544;4.662;2023-02-15T11:30:24;43.75;;;24.35;;
76495;SDS011;65329;52.544;4.662;2023-02-15T11:33:00;43.22;;;24.67;;
76495;SDS011;65329;52.544;4.662;2023-02-15T11:35:33;49.20;;;25.48;;
76495;SDS011;65329;52.544;4.662;2023-02-15T11:38:17;45.65;;;24.83;;
76495;SDS011;65329;52.544;4.662;2023-02-15T11:40:48;40.38;;;23.95;;
76495;SDS011;65329;52.544;4.662;2023-02-15T11:43:21;48.80;;;25.40;;
76495;SDS011;65329;52.544;4.662;2023-02-15T11:45:56;44.42;;;25.75;;
76495;SDS011;65329;52.544;4.662;2023-02-15T11:48:23;43.13;;;24.05;;
76495;SDS011;65329;52.544;4.662;2023-02-15T11:50:50;42.67;;;25.65;;
76495;SDS011;65329;52.544;4.662;2023-02-15T11:53:19;44.70;;;25.50;;
76495;SDS011;65329;52.544;4.662;2023-02-15T11:55:48;41.47;;;24.65;;
76495;SDS011;65329;52.544;4.662;2023-02-15T12:00:58;45.28;;;25.60;;
76495;SDS011;65329;52.544;4.662;2023-02-15T12:03:49;41.70;;;24.67;;
76495;SDS011;65329;52.544;4.662;2023-02-15T12:11:48;45.50;;;23.17;;
76495;SDS011;65329;52.544;4.662;2023-02-15T12:14:15;47.22;;;23.10;;
76495;SDS011;65329;52.544;4.662;2023-02-15T12:16:49;43.58;;;23.02;;
76495;SDS011;65329;52.544;4.662;2023-02-15T12:19:27;49.85;;;24.25;;
76495;SDS011;65329;52.544;4.662;2023-02-15T12:21:55;42.03;;;21.33;;
76495;SDS011;65329;52.544;4.662;2023-02-15T12:26:58;37.03;;;20.25;;
76495;SDS011;65329;52.544;4.662;2023-02-15T12:29:31;39.30;;;21.80;;
76495;SDS011;65329;52.544;4.662;2023-02-15T12:32:56;47.22;;;25.88;;
76495;SDS011;65329;52.544;4.662;2023-02-15T12:40:42;45.13;;;23.38;;
76495;SDS011;65329;52.544;4.662;2023-02-15T12:43:35;43.80;;;23.63;;
76495;SDS011;65329;52.544;4.662;2023-02-15T12:46:23;41.80;;;22.55;;
76495;SDS011;65329;52.544;4.662;2023-02-15T12:59:53;46.80;;;24.98;;
76495;SDS011;65329;52.544;4.662;2023-02-15T13:02:22;50.53;;;24.52;;
76495;SDS011;65329;52.544;4.662;2023-02-15T13:04:53;43.78;;;24.42;;
76495;SDS011;65329;52.544;4.662;2023-02-15T13:07:21;45.63;;;25.23;;
76495;SDS011;65329;52.544;4.662;2023-02-15T13:09:50;47.13;;;22.98;;
76495;SDS011;65329;52.544;4.662;2023-02-15T13:12:19;44.67;;;24.05;;
76495;SDS011;65329;52.544;4.662;2023-02-15T13:14:53;43.95;;;23.65;;
76495;SDS011;65329;52.544;4.662;2023-02-15T13:17:31;40.25;;;22.20;;
76495;SDS011;65329;52.544;4.662;2023-02-15T13:20:02;46.65;;;22.95;;
76495;SDS011;65329;52.544;4.662;2023-02-15T13:22:38;41.70;;;21.15;;
76495;SDS011;65329;52.544;4.662;2023-02-15T13:25:19;39.92;;;21.48;;
76495;SDS011;65329;52.544;4.662;2023-02-15T13:27:50;40.63;;;22.92;;
76495;SDS011;65329;52.544;4.662;2023-02-15T13:30:37;50.80;;;23.58;;
76495;SDS011;65329;52.544;4.662;2023-02-15T13:33:29;46.03;;;24.23;;
76495;SDS011;65329;52.544;4.662;2023-02-15T13:36:10;46.05;;;25.58;;
76495;SDS011;65329;52.544;4.662;2023-02-15T13:50:10;48.88;;;25.38;;
76495;SDS011;65329;52.544;4.662;2023-02-15T13:55:31;45.58;;;25.88;;
76495;SDS011;65329;52.544;4.662;2023-02-15T13:58:29;51.10;;;25.90;;
76495;SDS011;65329;52.544;4.662;2023-02-15T14:01:10;44.40;;;24.52;;
76495;SDS011;65329;52.544;4.662;2023-02-15T14:06:54;51.83;;;25.45;;
76495;SDS011;65329;52.544;4.662;2023-02-15T14:12:50;49.20;;;24.50;;
76495;SDS011;65329;52.544;4.662;2023-02-15T14:18:05;49.00;;;26.17;;
76495;SDS011;65329;52.544;4.662;2023-02-15T14:35:24;47.20;;;24.25;;
76495;SDS011;65329;52.544;4.662;2023-02-15T14:40:39;45.83;;;23.00;;
76495;SDS011;65329;52.544;4.662;2023-02-15T14:48:54;50.22;;;22.80;;
76495;SDS011;65329;52.544;4.662;2023-02-15T14:56:43;50.33;;;23.40;;
76495;SDS011;65329;52.544;4.662;2023-02-15T14:59:20;48.40;;;24.40;;
76495;SDS011;65329;52.544;4.662;2023-02-15T15:02:39;40.35;;;22.48;;
76495;SDS011;65329;52.544;4.662;2023-02-15T15:04:45;51.17;;;25.95;;
76495;SDS011;65329;52.544;4.662;2023-02-15T15:07:46;54.17;;;25.38;;
76495;SDS011;65329;52.544;4.662;2023-02-15T15:12:44;51.67;;;25.02;;
76495;SDS011;65329;52.544;4.662;2023-02-15T15:18:04;46.72;;;23.65;;
76495;SDS011;65329;52.544;4.662;2023-02-15T15:20:49;50.22;;;24.02;;
76495;SDS011;65329;52.544;4.662;2023-02-15T15:31:25;43.80;;;22.20;;
76495;SDS011;65329;52.544;4.662;2023-02-15T15:37:12;48.80;;;23.25;;
76495;SDS011;65329;52.544;4.662;2023-02-15T15:40:21;42.22;;;22.20;;
76495;SDS011;65329;52.544;4.662;2023-02-15T15:43:24;48.10;;;22.77;;
76495;SDS011;65329;52.544;4.662;2023-02-15T15:46:21;51.28;;;23.92;;
76495;SDS011;65329;52.544;4.662;2023-02-15T15:49:15;43.88;;;22.73;;
76495;SDS011;65329;52.544;4.662;2023-02-15T15:51:45;47.13;;;23.48;;
76495;SDS011;65329;52.544;4.662;2023-02-15T15:54:17;47.92;;;22.63;;
76495;SDS011;65329;52.544;4.662;2023-02-15T15:56:48;44.22;;;20.52;;
76495;SDS011;65329;52.544;4.662;2023-02-15T15:59:26;41.40;;;22.20;;
76495;SDS011;65329;52.544;4.662;2023-02-15T16:01:56;44.22;;;21.08;;
76495;SDS011;65329;52.544;4.662;2023-02-15T16:04:31;44.63;;;20.88;;
76495;SDS011;65329;52.544;4.662;2023-02-15T16:12:35;37.72;;;18.98;;
76495;SDS011;65329;52.544;4.662;2023-02-15T16:15:15;39.55;;;19.95;;
76495;SDS011;65329;52.544;4.662;2023-02-15T16:17:47;44.75;;;19.92;;
76495;SDS011;65329;52.544;4.662;2023-02-15T16:22:49;37.00;;;20.33;;
76495;SDS011;65329;52.544;4.662;2023-02-15T16:28:15;37.97;;;17.52;;
76495;SDS011;65329;52.544;4.662;2023-02-15T16:30:45;30.55;;;17.35;;
76495;SDS011;65329;52.544;4.662;2023-02-15T16:33:16;36.35;;;17.50;;
76495;SDS011;65329;52.544;4.662;2023-02-15T16:35:57;37.33;;;17.45;;
76495;SDS011;65329;52.544;4.662;2023-02-15T16:41:12;34.83;;;17.70;;
76495;SDS011;65329;52.544;4.662;2023-02-15T16:43:42;35.65;;;17.33;;
76495;SDS011;65329;52.544;4.662;2023-02-15T16:46:16;32.88;;;16.77;;
76495;SDS011;65329;52.544;4.662;2023-02-15T16:48:48;31.90;;;17.33;;
76495;SDS011;65329;52.544;4.662;2023-02-15T16:51:18;37.88;;;18.73;;
76495;SDS011;65329;52.544;4.662;2023-02-15T16:53:49;34.30;;;18.08;;
76495;SDS011;65329;52.544;4.662;2023-02-15T16:56:18;39.00;;;20.23;;
76495;SDS011;65329;52.544;4.662;2023-02-15T16:58:50;38.47;;;19.70;;
76495;SDS011;65329;52.544;4.662;2023-02-15T17:01:21;38.22;;;19.50;;
76495;SDS011;65329;52.544;4.662;2023-02-15T17:03:51;39.08;;;20.50;;
76495;SDS011;65329;52.544;4.662;2023-02-15T17:06:39;40.45;;;21.05;;
76495;SDS011;65329;52.544;4.662;2023-02-15T17:09:13;35.20;;;19.13;;
76495;SDS011;65329;52.544;4.662;2023-02-15T17:11:44;40.60;;;19.88;;
76495;SDS011;65329;52.544;4.662;2023-02-15T17:14:13;36.58;;;20.80;;
76495;SDS011;65329;52.544;4.662;2023-02-15T17:16:53;37.08;;;19.85;;
76495;SDS011;65329;52.544;4.662;2023-02-15T17:19:26;41.45;;;21.67;;
76495;SDS011;65329;52.544;4.662;2023-02-15T17:21:56;36.22;;;20.40;;
76495;SDS011;65329;52.544;4.662;2023-02-15T17:27:12;42.88;;;22.33;;
76495;SDS011;65329;52.544;4.662;2023-02-15T17:29:47;43.58;;;20.80;;
76495;SDS011;65329;52.544;4.662;2023-02-15T17:32:19;40.10;;;21.10;;
76495;SDS011;65329;52.544;4.662;2023-02-15T17:37:48;42.47;;;21.20;;
76495;SDS011;65329;52.544;4.662;2023-02-15T17:42:53;40.63;;;21.40;;
76495;SDS011;65329;52.544;4.662;2023-02-15T17:45:21;36.63;;;19.95;;
76495;SDS011;65329;52.544;4.662;2023-02-15T17:47:51;37.28;;;20.65;;
76495;SDS011;65329;52.544;4.662;2023-02-15T17:50:20;36.70;;;18.88;;
76495;SDS011;65329;52.544;4.662;2023-02-15T17:52:51;34.22;;;19.35;;
76495;SDS011;65329;52.544;4.662;2023-02-15T17:55:22;38.25;;;21.08;;
76495;SDS011;65329;52.544;4.662;2023-02-15T17:58:02;39.58;;;19.63;;
76495;SDS011;65329;52.544;4.662;2023-02-15T18:00:30;42.55;;;20.55;;
76495;SDS011;65329;52.544;4.662;2023-02-15T18:03:19;37.67;;;19.50;;
76495;SDS011;65329;52.544;4.662;2023-02-15T18:06:23;38.30;;;19.33;;
76495;SDS011;65329;52.544;4.662;2023-02-15T18:09:12;40.92;;;18.88;;
76495;SDS011;65329;52.544;4.662;2023-02-15T18:11:59;35.15;;;19.13;;
76495;SDS011;65329;52.544;4.662;2023-02-15T18:16:58;39.70;;;21.27;;
76495;SDS011;65329;52.544;4.662;2023-02-15T18:19:25;36.33;;;20.65;;
76495;SDS011;65329;52.544;4.662;2023-02-15T18:21:52;37.78;;;18.50;;
76495;SDS011;65329;52.544;4.662;2023-02-15T18:24:22;39.58;;;21.85;;
76495;SDS011;65329;52.544;4.662;2023-02-15T18:26:52;40.75;;;22.30;;